Terminal Aerodrome Forecast
Issued by NWS

Current Version | Previous Version | Graphics & Text | Print | Product List | Glossary On
Versions: 1 2 3 4 5 6 7 8 9 10 11 12 13 14 15 16 17 18 19 20 21 22 23 24 25 26 27
000
FTUS41 KRLX 261507 AAA
TAFCKB
TAF AMD
KCKB 261507Z 2615/2712 25007KT P6SM BKN021 BKN027 BKN035
     FM261900 27010G17KT P6SM BKN035
     FM262200 27008KT P6SM BKN070
     FM270200 23004KT P6SM SCT130
     FM270600 00000KT P6SM SCT060=

USA.gov is the U.S. government's official web portal to all federal, state and local government web resources and services.